createdAt,value
2023-05-19T00:00:02.873Z,82.10
2023-05-19T00:01:02.900Z,82.00
2023-05-19T00:02:02.869Z,82.00
2023-05-19T00:03:02.940Z,82.41
2023-05-19T00:04:03.030Z,82.71
2023-05-19T00:05:02.786Z,82.51
2023-05-19T00:06:02.820Z,82.10
2023-05-19T00:07:02.786Z,82.00
2023-05-19T00:08:02.768Z,82.00
2023-05-19T00:09:02.784Z,82.20
2023-05-19T00:10:02.739Z,82.51
2023-05-19T00:11:02.712Z,83.03
2023-05-19T00:12:02.718Z,83.03
2023-05-19T00:13:02.728Z,82.71
2023-05-19T00:14:02.708Z,82.86
2023-05-19T00:15:02.706Z,83.27
2023-05-19T00:16:02.744Z,83.17
2023-05-19T00:17:02.676Z,82.45
2023-05-19T00:18:02.713Z,82.76
2023-05-19T00:19:02.662Z,83.27
2023-05-19T00:20:02.658Z,83.78
2023-05-19T00:21:02.616Z,82.86
2023-05-19T00:22:02.634Z,82.76
2023-05-19T00:23:02.601Z,83.27
2023-05-19T00:24:02.687Z,83.17
2023-05-19T00:25:02.605Z,83.68
2023-05-19T00:26:02.584Z,83.89
2023-05-19T00:27:02.557Z,83.92
2023-05-19T00:28:02.543Z,83.83
2023-05-19T00:29:02.544Z,83.51
2023-05-19T00:30:02.526Z,83.92
2023-05-19T00:31:02.512Z,83.62
2023-05-19T00:32:02.526Z,83.41
2023-05-19T00:33:02.552Z,83.31
2023-05-19T00:34:02.476Z,83.83
2023-05-19T00:35:02.497Z,84.13
2023-05-19T00:36:02.451Z,83.11
2023-05-19T00:37:02.482Z,83.00
2023-05-19T00:38:02.451Z,83.62
2023-05-19T00:39:02.450Z,83.20
2023-05-19T00:40:02.458Z,83.72
2023-05-19T00:41:02.413Z,83.72
2023-05-19T00:42:02.397Z,83.11
2023-05-19T00:43:02.429Z,83.31
2023-05-19T00:44:02.391Z,83.62
2023-05-19T00:45:02.387Z,84.13
2023-05-19T00:46:02.383Z,83.99
2023-05-19T00:47:02.685Z,83.68
2023-05-19T00:48:02.452Z,83.37
2023-05-19T00:49:02.363Z,83.27
2023-05-19T00:50:02.342Z,83.17
2023-05-19T00:51:02.573Z,83.17
2023-05-19T00:52:02.306Z,83.17
2023-05-19T00:53:02.329Z,83.48
2023-05-19T00:54:02.315Z,83.58
2023-05-19T00:55:02.286Z,83.68
2023-05-19T00:56:02.423Z,83.78
2023-05-19T00:57:02.301Z,83.48
2023-05-19T00:58:02.443Z,83.48
2023-05-19T00:59:02.253Z,83.06
2023-05-19T01:00:02.211Z,83.27
2023-05-19T01:01:02.316Z,83.68
2023-05-19T01:02:02.198Z,83.68
2023-05-19T01:03:02.365Z,83.89
2023-05-19T01:04:02.361Z,83.68
2023-05-19T01:05:02.150Z,83.51
2023-05-19T01:06:02.139Z,83.72
2023-05-19T01:07:02.169Z,83.83
2023-05-19T01:08:02.144Z,84.03
2023-05-19T01:09:02.145Z,83.83
2023-05-19T01:10:02.234Z,84.13
2023-05-19T01:11:02.146Z,84.03
2023-05-19T01:12:02.104Z,84.38
2023-05-19T01:13:02.202Z,84.69
2023-05-19T01:14:02.077Z,85.41
2023-05-19T01:15:02.053Z,85.61
2023-05-19T01:16:02.167Z,85.61
2023-05-19T01:17:02.061Z,85.82
2023-05-19T01:18:02.126Z,86.06
2023-05-19T01:19:02.171Z,86.06
2023-05-19T01:20:02.019Z,86.16
2023-05-19T01:21:02.021Z,86.47
2023-05-19T01:22:02.017Z,86.68
2023-05-19T01:23:02.008Z,86.99
2023-05-19T01:24:02.082Z,87.13
2023-05-19T01:25:01.988Z,87.75
2023-05-19T01:26:01.974Z,87.85
2023-05-19T01:27:01.968Z,87.96
2023-05-19T01:28:01.929Z,87.96
2023-05-19T01:29:01.952Z,87.96
2023-05-19T01:30:01.937Z,87.96
2023-05-19T01:31:01.930Z,87.96
2023-05-19T01:32:01.902Z,87.99
2023-05-19T01:33:01.931Z,87.99
2023-05-19T01:34:01.845Z,88.10
2023-05-19T01:35:01.909Z,88.20
2023-05-19T01:36:01.875Z,88.20
2023-05-19T01:37:01.885Z,88.10
2023-05-19T01:38:01.808Z,87.90
2023-05-19T01:39:01.789Z,87.79
2023-05-19T01:40:01.849Z,88.10
2023-05-19T01:41:01.812Z,87.99
2023-05-19T01:42:01.794Z,88.10
2023-05-19T01:43:01.833Z,88.04
2023-05-19T01:44:01.733Z,88.35
2023-05-19T01:45:01.804Z,88.45
2023-05-19T01:46:01.791Z,88.41
2023-05-19T01:47:01.791Z,88.45
2023-05-19T01:48:01.781Z,88.45
2023-05-19T01:49:01.773Z,88.35
2023-05-19T01:50:01.699Z,88.35
2023-05-19T01:51:01.755Z,88.35
2023-05-19T01:52:01.719Z,88.45
2023-05-19T01:53:01.705Z,88.65
2023-05-19T01:54:01.656Z,88.56
2023-05-19T01:55:01.649Z,88.56
2023-05-19T01:56:01.684Z,88.65
2023-05-19T01:57:01.668Z,88.86
2023-05-19T01:58:01.661Z,88.76
2023-05-19T01:59:01.635Z,88.56
2023-05-19T02:00:01.601Z,88.65
2023-05-19T02:01:01.595Z,89.07
2023-05-19T02:02:01.571Z,89.07
2023-05-19T02:03:01.613Z,89.07
2023-05-19T02:04:01.613Z,89.17
2023-05-19T02:05:01.541Z,88.96
2023-05-19T02:06:01.511Z,89.28
2023-05-19T02:07:01.568Z,89.62
2023-05-19T02:08:01.519Z,89.42
2023-05-19T02:09:01.512Z,89.42
2023-05-19T02:10:01.480Z,89.42
2023-05-19T02:11:01.473Z,89.52
2023-05-19T02:12:01.486Z,89.42
2023-05-19T02:13:01.494Z,89.42
2023-05-19T02:14:01.462Z,89.62
2023-05-19T02:15:01.426Z,89.94
2023-05-19T02:16:01.410Z,89.94
2023-05-19T02:17:01.424Z,89.94
2023-05-19T02:18:01.417Z,90.25
2023-05-19T02:19:01.467Z,90.14
2023-05-19T02:20:01.382Z,90.25
2023-05-19T02:21:01.404Z,90.25
2023-05-19T02:22:01.384Z,90.28
2023-05-19T02:23:01.361Z,90.39
2023-05-19T02:24:01.337Z,90.39
2023-05-19T02:25:01.420Z,90.49
2023-05-19T02:26:01.357Z,90.49
2023-05-19T02:27:01.334Z,90.70
2023-05-19T02:28:01.295Z,90.91
2023-05-19T02:29:01.285Z,91.01
2023-05-19T02:30:01.269Z,91.26
2023-05-19T02:31:01.270Z,91.36
2023-05-19T02:32:01.369Z,91.46
2023-05-19T02:33:01.330Z,91.36
2023-05-19T02:34:01.216Z,91.56
2023-05-19T02:35:01.243Z,91.56
2023-05-19T02:36:01.223Z,91.56
2023-05-19T02:37:01.240Z,91.67
2023-05-19T02:38:01.172Z,91.77
2023-05-19T02:39:01.180Z,91.77
2023-05-19T02:40:01.191Z,91.88
2023-05-19T02:41:01.176Z,92.02
2023-05-19T02:42:01.120Z,92.23
2023-05-19T02:43:01.117Z,92.44
2023-05-19T02:44:01.136Z,92.54
2023-05-19T02:45:01.119Z,92.85
2023-05-19T02:46:01.165Z,92.85
2023-05-19T02:47:01.082Z,92.95
2023-05-19T02:48:01.193Z,93.16
2023-05-19T02:49:01.015Z,93.16
2023-05-19T02:50:01.068Z,93.16
2023-05-19T02:51:01.007Z,93.05
2023-05-19T02:52:00.970Z,92.85
2023-05-19T02:53:00.973Z,92.64
2023-05-19T02:54:00.959Z,92.44
2023-05-19T02:55:00.931Z,92.13
2023-05-19T02:56:00.938Z,92.23
2023-05-19T02:57:00.975Z,92.23
2023-05-19T02:58:00.967Z,92.23
2023-05-19T02:59:00.903Z,92.13
2023-05-19T03:00:00.927Z,92.13
2023-05-19T03:01:00.901Z,92.23
2023-05-19T03:02:00.905Z,92.33
2023-05-19T03:03:00.930Z,92.54
2023-05-19T03:04:00.891Z,92.44
2023-05-19T03:05:00.842Z,92.23
2023-05-19T03:06:00.858Z,92.23
2023-05-19T03:07:00.823Z,92.54
2023-05-19T03:08:00.796Z,92.44
2023-05-19T03:09:00.800Z,92.54
2023-05-19T03:10:00.792Z,92.64
2023-05-19T03:11:00.802Z,92.85
2023-05-19T03:12:00.766Z,92.95
2023-05-19T03:13:00.750Z,92.85
2023-05-19T03:14:00.779Z,92.74
2023-05-19T03:15:00.919Z,92.54
2023-05-19T03:16:00.789Z,92.74
2023-05-19T03:17:00.745Z,92.64
2023-05-19T03:18:00.719Z,92.54
2023-05-19T03:19:00.793Z,92.54
2023-05-19T03:20:00.668Z,92.64
2023-05-19T03:21:01.371Z,92.74
2023-05-19T03:22:00.711Z,92.85
2023-05-19T03:23:00.734Z,92.74
2023-05-19T03:24:00.624Z,92.85
2023-05-19T03:25:00.645Z,92.64
2023-05-19T03:26:00.609Z,92.89
2023-05-19T03:27:00.634Z,92.99
2023-05-19T03:28:00.708Z,92.99
2023-05-19T03:29:00.609Z,92.89
2023-05-19T03:30:00.608Z,92.99
2023-05-19T03:31:00.602Z,93.10
2023-05-19T03:32:00.593Z,92.99
2023-05-19T03:33:00.638Z,92.89
2023-05-19T03:34:00.540Z,93.10
2023-05-19T03:35:00.552Z,92.95
2023-05-19T03:36:00.510Z,92.95
2023-05-19T03:37:00.500Z,92.85
2023-05-19T03:38:00.538Z,92.89
2023-05-19T03:39:00.471Z,92.74
2023-05-19T03:40:00.473Z,92.89
2023-05-19T03:41:00.452Z,92.68
2023-05-19T03:42:00.442Z,92.68
2023-05-19T03:43:00.470Z,92.79
2023-05-19T03:44:00.430Z,92.79
2023-05-19T03:45:00.446Z,92.89
2023-05-19T03:46:00.424Z,92.99
2023-05-19T03:47:00.388Z,92.99
2023-05-19T03:48:00.453Z,92.99
2023-05-19T03:49:00.391Z,92.79
2023-05-19T03:50:00.356Z,92.89
2023-05-19T03:51:00.388Z,93.10
2023-05-19T03:52:00.321Z,93.20
2023-05-19T03:53:00.319Z,93.30
2023-05-19T03:54:00.346Z,93.41
2023-05-19T03:55:00.326Z,93.51
2023-05-19T03:56:00.289Z,93.87
2023-05-19T03:57:00.292Z,93.87
2023-05-19T03:58:00.255Z,93.76
2023-05-19T03:59:00.268Z,93.76
2023-05-19T04:00:00.293Z,93.76
2023-05-19T04:01:00.220Z,93.97
2023-05-19T04:02:00.306Z,94.07
2023-05-19T04:03:00.568Z,94.07
2023-05-19T04:04:00.276Z,94.18
2023-05-19T04:05:00.223Z,94.48
2023-05-19T04:06:00.174Z,94.48
2023-05-19T04:07:00.182Z,94.38
2023-05-19T04:08:00.191Z,94.48
2023-05-19T04:09:00.149Z,94.79
2023-05-19T04:10:00.229Z,94.69
2023-05-19T04:11:00.150Z,94.69
2023-05-19T04:12:00.142Z,94.79
2023-05-19T04:13:00.130Z,94.79
2023-05-19T04:14:00.129Z,94.69
2023-05-19T04:15:00.138Z,94.54
2023-05-19T04:16:00.163Z,94.44
2023-05-19T04:17:00.123Z,94.23
2023-05-19T04:18:00.107Z,94.23
2023-05-19T04:19:00.126Z,94.44
2023-05-19T04:20:00.074Z,94.54
2023-05-19T04:21:00.042Z,94.75
2023-05-19T04:22:00.008Z,94.85
2023-05-19T04:23:00.007Z,94.75
2023-05-19T04:23:59.981Z,94.85
2023-05-19T04:24:59.992Z,94.71
2023-05-19T04:25:59.980Z,94.60
2023-05-19T04:26:59.981Z,94.50
2023-05-19T04:27:59.984Z,94.60
2023-05-19T04:28:59.928Z,94.60
2023-05-19T04:29:59.921Z,94.40
2023-05-19T04:30:59.966Z,94.29
2023-05-19T04:31:59.890Z,94.60
2023-05-19T04:32:59.931Z,94.81
2023-05-19T04:33:59.858Z,94.81
2023-05-19T04:34:59.924Z,94.71
2023-05-19T04:35:59.868Z,94.60
2023-05-19T04:36:59.844Z,94.60
2023-05-19T04:37:59.829Z,94.56
2023-05-19T04:38:59.859Z,94.56
2023-05-19T04:39:59.822Z,94.56
2023-05-19T04:40:59.818Z,94.67
2023-05-19T04:41:59.809Z,94.67
2023-05-19T04:42:59.786Z,94.67
2023-05-19T04:43:59.778Z,94.52
2023-05-19T04:44:59.769Z,94.72
2023-05-19T04:45:59.752Z,94.82
2023-05-19T04:46:59.850Z,95.03
2023-05-19T04:47:59.812Z,95.14
2023-05-19T04:48:59.725Z,95.03
2023-05-19T04:49:59.697Z,95.24
2023-05-19T04:50:59.704Z,95.24
2023-05-19T04:51:59.689Z,95.24
2023-05-19T04:52:59.719Z,95.24
2023-05-19T04:53:59.680Z,95.09
2023-05-19T04:54:59.665Z,95.30
2023-05-19T04:55:59.636Z,95.09
2023-05-19T04:56:59.643Z,95.40
2023-05-19T04:57:59.625Z,95.61
2023-05-19T04:58:59.641Z,95.81
2023-05-19T04:59:59.597Z,95.71
2023-05-19T05:00:59.629Z,95.46
2023-05-19T05:01:59.711Z,95.56
2023-05-19T05:02:59.671Z,95.56
2023-05-19T05:03:59.609Z,95.46
2023-05-19T05:04:59.543Z,95.25
2023-05-19T05:05:59.531Z,95.10
2023-05-19T05:06:59.536Z,95.10
2023-05-19T05:08:00.363Z,95.21
2023-05-19T05:08:59.506Z,95.21
2023-05-19T05:09:59.497Z,95.00
2023-05-19T05:10:59.491Z,94.13
2023-05-19T05:11:59.474Z,93.83
2023-05-19T05:12:59.454Z,93.31
2023-05-19T05:13:59.460Z,93.21
2023-05-19T05:14:59.421Z,92.76
2023-05-19T05:15:59.470Z,92.55
2023-05-19T05:16:59.436Z,92.34
2023-05-19T05:17:59.446Z,91.93
2023-05-19T05:18:59.433Z,91.06
2023-05-19T05:19:59.367Z,91.06
2023-05-19T05:20:59.379Z,90.66
2023-05-19T05:21:59.372Z,90.14
2023-05-19T05:22:59.349Z,90.03
2023-05-19T05:23:59.341Z,90.09
2023-05-19T05:24:59.371Z,90.00
2023-05-19T05:25:59.348Z,89.89
2023-05-19T05:26:59.311Z,89.58
2023-05-19T05:27:59.328Z,89.48
2023-05-19T05:28:59.272Z,88.92
2023-05-19T05:29:59.384Z,88.41
2023-05-19T05:30:59.264Z,87.90
2023-05-19T05:31:59.255Z,87.49
2023-05-19T05:32:59.291Z,88.31
2023-05-19T05:33:59.350Z,87.18
2023-05-19T05:34:59.220Z,86.83
2023-05-19T05:35:59.204Z,86.72
2023-05-19T05:36:59.203Z,86.72
2023-05-19T05:37:59.221Z,86.93
2023-05-19T05:38:59.191Z,87.10
2023-05-19T05:39:59.161Z,87.10
2023-05-19T05:40:59.158Z,86.89
2023-05-19T05:41:59.143Z,87.30
2023-05-19T05:42:59.158Z,85.66
2023-05-19T05:43:59.114Z,85.55
2023-05-19T05:44:59.107Z,86.07
2023-05-19T05:45:59.123Z,86.03
2023-05-19T05:46:59.081Z,85.52
2023-05-19T05:47:59.125Z,85.82
2023-05-19T05:48:59.115Z,85.82
2023-05-19T05:49:59.060Z,85.00
2023-05-19T05:50:59.057Z,84.86
2023-05-19T05:52:05.801Z,85.38
2023-05-19T05:52:59.054Z,84.34
2023-05-19T05:53:59.000Z,84.25
2023-05-19T05:54:59.011Z,85.17
2023-05-19T05:55:59.007Z,85.58
2023-05-19T05:56:58.981Z,85.44
2023-05-19T05:57:58.982Z,85.64
2023-05-19T05:58:58.961Z,84.61
2023-05-19T05:59:58.984Z,84.52
2023-05-19T06:00:58.949Z,84.52
2023-05-19T06:01:58.975Z,85.85
2023-05-19T06:02:58.996Z,85.09
2023-05-19T06:03:58.931Z,84.47
2023-05-19T06:04:58.962Z,84.06
2023-05-19T06:05:59.066Z,84.58
2023-05-19T06:06:58.883Z,84.47
2023-05-19T06:07:58.974Z,84.64
2023-05-19T06:08:58.866Z,84.74
2023-05-19T06:09:58.875Z,85.25
2023-05-19T06:10:58.856Z,84.44
2023-05-19T06:11:58.886Z,84.74
2023-05-19T06:12:58.815Z,85.15
2023-05-19T06:13:58.820Z,82.96
2023-05-19T06:14:58.808Z,83.17
2023-05-19T06:16:00.546Z,81.63
2023-05-19T06:16:58.771Z,81.94
2023-05-19T06:17:58.841Z,83.37
2023-05-19T06:18:58.860Z,81.90
2023-05-19T06:19:58.735Z,80.05
2023-05-19T06:20:58.761Z,79.24
2023-05-19T06:21:58.735Z,78.42
2023-05-19T06:22:58.721Z,79.13
2023-05-19T06:23:58.721Z,79.96
2023-05-19T06:24:58.714Z,79.24
2023-05-19T06:25:58.696Z,79.50
2023-05-19T06:26:58.718Z,80.43
2023-05-19T06:27:58.664Z,79.20
2023-05-19T06:28:58.636Z,79.16
2023-05-19T06:29:58.702Z,79.47
2023-05-19T06:30:58.667Z,79.88
2023-05-19T06:31:58.720Z,80.39
2023-05-19T06:32:58.627Z,80.05
2023-05-19T06:33:58.606Z,80.15
2023-05-19T06:34:58.605Z,78.20
2023-05-19T06:35:58.580Z,78.52
2023-05-19T06:36:58.567Z,78.78
2023-05-19T06:37:58.575Z,78.27
2023-05-19T06:38:59.666Z,77.86
2023-05-19T06:39:58.566Z,76.81
2023-05-19T06:40:58.525Z,76.90
2023-05-19T06:41:58.545Z,79.02
2023-05-19T06:42:58.533Z,76.56
2023-05-19T06:43:58.479Z,77.18
2023-05-19T06:44:58.498Z,76.84
2023-05-19T06:45:58.476Z,73.77
2023-05-19T06:46:58.487Z,75.51
2023-05-19T06:47:58.603Z,74.59
2023-05-19T06:48:58.470Z,74.15
2023-05-19T06:49:58.444Z,75.07
2023-05-19T06:50:58.422Z,73.94
2023-05-19T06:51:58.425Z,73.19
2023-05-19T06:52:58.513Z,71.67
2023-05-19T06:53:58.400Z,73.10
2023-05-19T06:54:58.374Z,73.10
2023-05-19T06:56:00.241Z,72.65
2023-05-19T06:56:58.332Z,71.94
2023-05-19T06:57:58.373Z,72.11
2023-05-19T06:58:58.349Z,72.21
2023-05-19T06:59:58.346Z,70.78
2023-05-19T07:00:58.302Z,71.56
2023-05-19T07:01:58.385Z,72.17
2023-05-19T07:02:59.199Z,70.21
2023-05-19T07:03:58.421Z,70.38
2023-05-19T07:04:58.279Z,68.96
2023-05-19T07:05:58.263Z,68.24
2023-05-19T07:06:58.281Z,68.62
2023-05-19T07:07:58.272Z,70.11
2023-05-19T07:08:58.243Z,68.05
2023-05-19T07:09:58.221Z,68.93
2023-05-19T07:10:58.228Z,67.41
2023-05-19T07:11:58.213Z,66.86
2023-05-19T07:12:58.191Z,67.07
2023-05-19T07:13:58.175Z,65.82
2023-05-19T07:14:58.163Z,65.01
2023-05-19T07:15:58.256Z,64.30
2023-05-19T07:16:58.157Z,64.27
2023-05-19T07:17:58.176Z,64.78
2023-05-19T07:18:58.212Z,63.26
2023-05-19T07:19:58.110Z,62.65
2023-05-19T07:20:58.127Z,64.14
2023-05-19T07:21:58.098Z,63.93
2023-05-19T07:22:58.139Z,61.51
2023-05-19T07:23:58.177Z,62.72
2023-05-19T07:24:58.052Z,61.80
2023-05-19T07:25:58.086Z,60.28
2023-05-19T07:26:58.053Z,62.18
2023-05-19T07:27:58.047Z,63.09
2023-05-19T07:28:58.022Z,63.27
2023-05-19T07:29:58.044Z,60.26
2023-05-19T07:30:58.009Z,62.15
2023-05-19T07:31:58.304Z,61.95
2023-05-19T07:32:58.002Z,61.24
2023-05-19T07:33:57.954Z,62.05
2023-05-19T07:34:57.977Z,60.20
2023-05-19T07:35:57.954Z,59.42
2023-05-19T07:36:57.942Z,59.83
2023-05-19T07:37:57.925Z,60.71
2023-05-19T07:38:57.901Z,59.59
2023-05-19T07:39:57.918Z,60.27
2023-05-19T07:40:57.878Z,60.07
2023-05-19T07:41:57.914Z,60.78
2023-05-19T07:42:57.928Z,58.36
2023-05-19T07:43:57.914Z,59.27
2023-05-19T07:44:58.513Z,58.86
2023-05-19T07:45:57.954Z,58.45
2023-05-19T07:46:57.818Z,58.76
2023-05-19T07:47:57.906Z,57.82
2023-05-19T07:48:57.829Z,58.73
2023-05-19T07:49:57.794Z,57.92
2023-05-19T07:50:57.808Z,58.40
2023-05-19T07:51:57.785Z,58.43
2023-05-19T07:52:57.756Z,58.60
2023-05-19T07:53:57.746Z,57.79
2023-05-19T07:54:57.760Z,56.85
2023-05-19T07:55:58.631Z,59.38
2023-05-19T07:56:57.726Z,59.00
2023-05-19T07:57:57.736Z,56.18
2023-05-19T07:58:57.709Z,57.79
2023-05-19T07:59:58.065Z,57.67
2023-05-19T08:00:57.665Z,59.05
2023-05-19T08:01:57.667Z,57.71
2023-05-19T08:02:57.767Z,53.20
2023-05-19T08:03:57.820Z,54.71
2023-05-19T08:04:57.680Z,55.90
2023-05-19T08:05:57.621Z,55.77
2023-05-19T08:06:57.593Z,55.97
2023-05-19T08:07:57.616Z,54.13
2023-05-19T08:08:57.596Z,53.45
2023-05-19T08:09:57.587Z,53.55
2023-05-19T08:10:58.067Z,56.37
2023-05-19T08:11:57.585Z,53.72
2023-05-19T08:12:57.580Z,54.83
2023-05-19T08:13:57.554Z,52.82
2023-05-19T08:14:58.953Z,52.34
2023-05-19T08:15:57.606Z,56.48
2023-05-19T08:16:57.538Z,53.96
2023-05-19T08:17:57.537Z,54.96
2023-05-19T08:18:57.508Z,54.25
2023-05-19T08:19:57.462Z,53.92
2023-05-19T08:20:57.528Z,54.94
2023-05-19T08:21:57.484Z,52.72
2023-05-19T08:22:57.477Z,54.05
2023-05-19T08:23:57.448Z,56.24
2023-05-19T08:24:57.405Z,53.72
2023-05-19T08:25:57.457Z,53.85
2023-05-19T08:26:57.437Z,54.33
2023-05-19T08:27:57.405Z,54.53
2023-05-19T08:28:57.384Z,55.01
2023-05-19T08:29:57.449Z,53.30
2023-05-19T08:30:57.408Z,53.52
2023-05-19T08:31:57.369Z,54.43
2023-05-19T08:32:57.374Z,54.94
2023-05-19T08:33:57.387Z,56.95
2023-05-19T08:34:57.307Z,54.73
2023-05-19T08:35:57.323Z,53.52
2023-05-19T08:36:57.300Z,55.14
2023-05-19T08:37:57.297Z,53.42
2023-05-19T08:38:57.266Z,51.73
2023-05-19T08:39:57.280Z,51.96
2023-05-19T08:40:57.279Z,54.25
2023-05-19T08:41:57.255Z,54.25
2023-05-19T08:42:57.242Z,53.83
2023-05-19T08:43:57.281Z,53.02
2023-05-19T08:44:57.223Z,51.10
2023-05-19T08:45:57.276Z,52.42
2023-05-19T08:46:57.206Z,51.61
2023-05-19T08:47:57.232Z,54.76
2023-05-19T08:48:57.165Z,54.68
2023-05-19T08:49:57.176Z,54.08
2023-05-19T08:50:57.259Z,56.40
2023-05-19T08:51:57.140Z,56.30
2023-05-19T08:52:57.143Z,59.50
2023-05-19T08:53:57.177Z,56.55
2023-05-19T08:54:57.141Z,54.83
2023-05-19T08:55:57.104Z,57.76
2023-05-19T08:56:57.072Z,51.81
2023-05-19T08:57:57.094Z,55.04
2023-05-19T08:58:57.073Z,51.61
2023-05-19T08:59:57.077Z,53.22
2023-05-19T09:00:57.071Z,50.30
2023-05-19T09:01:57.049Z,51.20
2023-05-19T09:03:05.962Z,51.00
2023-05-19T09:03:57.082Z,52.06
2023-05-19T09:04:57.046Z,51.07
2023-05-19T09:05:57.082Z,55.99
2023-05-19T09:06:57.015Z,54.68
2023-05-19T09:07:56.979Z,53.85
2023-05-19T09:08:56.945Z,51.86
2023-05-19T09:09:56.956Z,52.87
2023-05-19T09:10:56.937Z,55.01
2023-05-19T09:11:56.952Z,53.40
2023-05-19T09:12:56.935Z,54.79
2023-05-19T09:13:56.914Z,51.53
2023-05-19T09:14:56.901Z,50.32
2023-05-19T09:15:56.974Z,50.30
2023-05-19T09:16:56.905Z,51.40
2023-05-19T09:17:56.911Z,51.81
2023-05-19T09:18:56.958Z,50.82
2023-05-19T09:19:56.838Z,47.88
2023-05-19T09:20:56.882Z,48.28
2023-05-19T09:21:56.829Z,50.78
2023-05-19T09:22:56.826Z,50.05
2023-05-19T09:23:56.802Z,51.03
2023-05-19T09:24:56.777Z,50.35
2023-05-19T09:25:56.765Z,50.85
2023-05-19T09:26:58.036Z,49.87
2023-05-19T09:27:56.771Z,52.80
2023-05-19T09:28:56.786Z,49.87
2023-05-19T09:29:56.779Z,51.36
2023-05-19T09:30:56.719Z,50.15
2023-05-19T09:31:56.766Z,54.58
2023-05-19T09:32:56.757Z,49.95
2023-05-19T09:33:56.692Z,50.27
2023-05-19T09:34:56.671Z,49.77
2023-05-19T09:35:56.689Z,53.70
2023-05-19T09:36:56.680Z,49.27
2023-05-19T09:37:56.643Z,49.15
2023-05-19T09:38:56.632Z,48.54
2023-05-19T09:39:56.611Z,48.14
2023-05-19T09:40:56.730Z,48.24
2023-05-19T09:41:56.629Z,48.94
2023-05-19T09:42:56.597Z,48.24
2023-05-19T09:43:56.600Z,50.65
2023-05-19T09:44:56.637Z,48.24
2023-05-19T09:45:56.698Z,49.35
2023-05-19T09:46:56.583Z,49.95
2023-05-19T09:47:56.598Z,48.44
2023-05-19T09:48:56.534Z,47.43
2023-05-19T09:49:56.535Z,50.15
2023-05-19T09:50:56.610Z,50.43
2023-05-19T09:51:56.513Z,47.81
2023-05-19T09:52:56.570Z,46.91
2023-05-19T09:53:56.485Z,48.61
2023-05-19T09:54:56.519Z,48.52
2023-05-19T09:55:56.448Z,48.49
2023-05-19T09:56:56.464Z,47.20
2023-05-19T09:57:56.488Z,48.19
2023-05-19T09:58:56.453Z,47.19
2023-05-19T09:59:56.457Z,47.97
2023-05-19T10:00:56.519Z,46.38
2023-05-19T10:01:56.576Z,48.09
2023-05-19T10:02:56.553Z,46.53
2023-05-19T10:03:56.384Z,47.66
2023-05-19T10:04:56.416Z,49.16
2023-05-19T10:05:56.346Z,47.03
2023-05-19T10:06:56.338Z,49.73
2023-05-19T10:07:56.332Z,48.79
2023-05-19T10:08:56.293Z,49.37
2023-05-19T10:09:56.791Z,46.56
2023-05-19T10:10:56.326Z,47.44
2023-05-19T10:11:56.282Z,45.91
2023-05-19T10:12:56.294Z,46.09
2023-05-19T10:13:56.333Z,46.19
2023-05-19T10:14:56.279Z,46.17
2023-05-19T10:15:59.296Z,44.67
2023-05-19T10:16:56.499Z,46.15
2023-05-19T10:17:56.249Z,43.94
2023-05-19T10:18:56.278Z,44.67
2023-05-19T10:19:56.167Z,44.06
2023-05-19T10:20:56.192Z,43.48
2023-05-19T10:21:56.189Z,44.68
2023-05-19T10:22:56.181Z,44.79
2023-05-19T10:23:56.180Z,44.48
2023-05-19T10:24:56.154Z,44.81
2023-05-19T10:25:56.134Z,43.38
2023-05-19T10:26:56.140Z,42.96
2023-05-19T10:27:56.112Z,43.96
2023-05-19T10:28:56.109Z,42.03
2023-05-19T10:29:56.100Z,41.61
2023-05-19T10:30:56.067Z,44.30
2023-05-19T10:31:56.109Z,43.90
2023-05-19T10:32:56.108Z,45.10
2023-05-19T10:33:56.050Z,44.22
2023-05-19T10:34:56.068Z,44.34
2023-05-19T10:35:56.042Z,44.95
2023-05-19T10:36:56.018Z,44.54
2023-05-19T10:37:56.114Z,43.34
2023-05-19T10:38:56.000Z,45.04
2023-05-19T10:39:55.972Z,42.63
2023-05-19T10:40:55.962Z,41.91
2023-05-19T10:41:55.992Z,42.41
2023-05-19T10:42:55.942Z,43.72
2023-05-19T10:43:55.964Z,43.26
2023-05-19T10:44:55.961Z,46.69
2023-05-19T10:45:55.945Z,44.81
2023-05-19T10:46:56.910Z,47.74
2023-05-19T10:47:55.959Z,46.54
2023-05-19T10:48:55.910Z,46.51
2023-05-19T10:49:55.892Z,48.02
2023-05-19T10:50:55.887Z,47.22
2023-05-19T10:51:55.867Z,45.29
2023-05-19T10:52:56.509Z,45.61
2023-05-19T10:53:55.870Z,46.64
2023-05-19T10:54:55.861Z,45.61
2023-05-19T10:55:55.849Z,43.50
2023-05-19T10:56:55.794Z,44.38
2023-05-19T10:57:55.812Z,43.96
2023-05-19T10:58:55.787Z,44.64
2023-05-19T10:59:55.788Z,45.12
2023-05-19T11:00:55.790Z,46.33
2023-05-19T11:01:55.834Z,45.22
2023-05-19T11:02:55.834Z,45.34
2023-05-19T11:03:55.848Z,46.35
2023-05-19T11:04:55.744Z,45.87
2023-05-19T11:05:55.713Z,44.68
2023-05-19T11:06:55.731Z,44.63
2023-05-19T11:07:55.686Z,46.84
2023-05-19T11:08:55.717Z,48.05
2023-05-19T11:09:55.679Z,50.26
2023-05-19T11:10:55.776Z,48.25
2023-05-19T11:11:55.681Z,47.66
2023-05-19T11:12:55.639Z,49.77
2023-05-19T11:13:55.691Z,46.01
2023-05-19T11:14:55.779Z,44.28
2023-05-19T11:15:55.620Z,44.46
2023-05-19T11:16:55.727Z,46.15
2023-05-19T11:17:55.679Z,42.91
2023-05-19T11:18:55.637Z,43.02
2023-05-19T11:19:55.617Z,44.32
2023-05-19T11:20:55.582Z,45.53
2023-05-19T11:21:55.549Z,43.94
2023-05-19T11:22:55.607Z,46.04
2023-05-19T11:23:55.613Z,45.37
2023-05-19T11:24:55.523Z,43.98
2023-05-19T11:25:55.538Z,44.99
2023-05-19T11:26:55.528Z,46.69
2023-05-19T11:27:55.500Z,46.19
2023-05-19T11:28:55.467Z,46.39
2023-05-19T11:29:55.474Z,45.17
2023-05-19T11:30:55.499Z,45.67
2023-05-19T11:31:55.508Z,47.58
2023-05-19T11:32:55.496Z,44.16
2023-05-19T11:33:55.404Z,45.09
2023-05-19T11:34:55.411Z,43.48
2023-05-19T11:35:55.476Z,43.68
2023-05-19T11:36:55.387Z,46.67
2023-05-19T11:37:55.374Z,47.45
2023-05-19T11:38:55.384Z,46.25
2023-05-19T11:39:55.344Z,48.28
2023-05-19T11:40:55.356Z,47.47
2023-05-19T11:41:55.347Z,45.79
2023-05-19T11:42:55.323Z,46.80
2023-05-19T11:43:55.336Z,46.07
2023-05-19T11:44:55.303Z,47.58
2023-05-19T11:45:55.412Z,46.17
2023-05-19T11:46:55.409Z,47.88
2023-05-19T11:48:01.961Z,49.78
2023-05-19T11:48:55.271Z,46.15
2023-05-19T11:49:55.269Z,45.34
2023-05-19T11:50:55.258Z,45.65
2023-05-19T11:51:55.217Z,48.66
2023-05-19T11:52:55.220Z,48.05
2023-05-19T11:53:55.208Z,47.15
2023-05-19T11:54:55.204Z,46.95
2023-05-19T11:55:55.169Z,45.34
2023-05-19T11:56:55.223Z,44.44
2023-05-19T11:58:03.058Z,45.95
2023-05-19T11:58:55.175Z,48.55
2023-05-19T11:59:55.132Z,43.66
2023-05-19T12:00:55.193Z,47.07
2023-05-19T12:01:55.126Z,47.17
2023-05-19T12:02:55.409Z,48.96
2023-05-19T12:03:55.198Z,44.64
2023-05-19T12:04:55.119Z,46.62
2023-05-19T12:05:55.122Z,46.62
2023-05-19T12:06:55.061Z,47.91
2023-05-19T12:07:55.038Z,45.28
2023-05-19T12:08:55.060Z,43.05
2023-05-19T12:09:55.046Z,43.05
2023-05-19T12:10:55.016Z,42.16
2023-05-19T12:11:55.035Z,41.85
2023-05-19T12:12:55.028Z,45.46
2023-05-19T12:13:55.002Z,43.96
2023-05-19T12:14:54.990Z,42.35
2023-05-19T12:15:55.019Z,44.66
2023-05-19T12:16:54.996Z,41.97
2023-05-19T12:17:54.998Z,41.39
2023-05-19T12:18:54.971Z,44.52
2023-05-19T12:19:54.938Z,43.82
2023-05-19T12:20:54.951Z,43.02
2023-05-19T12:21:54.930Z,44.42
2023-05-19T12:22:54.916Z,42.99
2023-05-19T12:23:54.915Z,41.79
2023-05-19T12:24:54.890Z,42.10
2023-05-19T12:25:54.859Z,44.28
2023-05-19T12:26:54.913Z,42.57
2023-05-19T12:27:56.044Z,42.66
2023-05-19T12:28:54.860Z,42.05
2023-05-19T12:29:54.816Z,41.75
2023-05-19T12:30:54.845Z,42.27
2023-05-19T12:31:54.857Z,44.18
2023-05-19T12:32:54.818Z,42.27
2023-05-19T12:33:54.848Z,43.19
2023-05-19T12:34:54.802Z,42.19
2023-05-19T12:35:54.800Z,41.82
2023-05-19T12:36:54.756Z,44.62
2023-05-19T12:37:54.752Z,44.22
2023-05-19T12:38:54.792Z,43.22
2023-05-19T12:39:54.695Z,43.34
2023-05-19T12:40:54.714Z,44.04
2023-05-19T12:41:54.759Z,45.84
2023-05-19T12:42:54.704Z,45.42
2023-05-19T12:43:54.715Z,43.32
2023-05-19T12:44:54.687Z,44.02
2023-05-19T12:45:54.724Z,45.92
2023-05-19T12:46:54.662Z,42.41
2023-05-19T12:47:54.761Z,42.69
2023-05-19T12:48:54.614Z,43.40
2023-05-19T12:49:54.624Z,41.88
2023-05-19T12:50:54.605Z,41.55
2023-05-19T12:51:54.600Z,40.73